Saint Francis River (Missouri), Saco (07036100)

StateMissouriLatestHigh (1830 cfs)
RiverSaint Francis RiverRatingObservedEstimated
Updated2021-03-03 14:00 (29 minutes ago)Flood - The river is flooding. Obstacles can be treacherous or deadly. The river should be avoided at this stage for casual trips and definitely for the inexperienced. Trips should be attempted only with protective gear and equipment.Flood(none)4236
Discharge1830 cfs (median: 699 cfs)High - The river is high and potentially dangerous, especially for the young and / or inexperienced. Normal stream obstacles are sometimes difficult to navigate. Extended distances can be attempted, but canoe travel may not be advisable.High(none)1799
Height5.73 feetGood - Conditions are ideal for a canoe or kayak. Boats typically will drag on fewer than one-quarter of riffles, if at all, and portages are unnecessary or rare. Normal float lengths can be attempted without a problem.Good(none)648
TrendFalling (falling over 24 hours)Low - River is low but can still be floated. Some riffles are okay but most come with significant dragging and might need a portage. Float lengths should be reduced to accommodate low flow, dragging, and portages.Low(none)195
USGSExternal icon USGS Site (External icon Google Maps)Poor - River is too low to float comfortably. Most or all riffles will drag or must be portaged and some obstacles (such as slick shelf rock) cause undue problems. Avoid the river at this stage for casual paddling trips.Poor(none)47

Trending Data

Plot Image

Trips for Saint Francis River (Missouri), Saco (07036100)

DateStartEndDistanceConditionDischargeHeightFishingDetails

A total of 0 rows are displayed.

Condition Descriptions

Fishing Conditions

Fish Species

Notes

Classic Trip List

The classic River Trips application is still available for use. It is updated with the new system using a data retrofit. It is no longer maintained. The original River Trips application is no longer updated (as of 1 Dec 2016) but can be checked for errors or for the condition of the data before it was converted to the new system.

Gauge Data Table

ObservationHeightDischargeMaximum
Discharge
Minimum
Discharge
Mean
Discharge
P05P10P20P25P50
(Median)
P75P80P90P95
2021-03-03 14:00 5.73 1830 7760 (1993) 123 (1996) 1200 173 262 329 408 699 1170 1220 3130 5760
2021-03-03 13:30 5.74 1840 7760 (1993) 123 (1996) 1200 173 262 329 408 699 1170 1220 3130 5760
2021-03-03 13:00 5.76 1850 7760 (1993) 123 (1996) 1200 173 262 329 408 699 1170 1220 3130 5760
2021-03-03 12:30 5.78 1870 7760 (1993) 123 (1996) 1200 173 262 329 408 699 1170 1220 3130 5760
2021-03-03 12:00 5.79 1870 7760 (1993) 123 (1996) 1200 173 262 329 408 699 1170 1220 3130 5760
2021-03-03 11:30 5.81 1890 7760 (1993) 123 (1996) 1200 173 262 329 408 699 1170 1220 3130 5760
2021-03-03 11:00 5.83 1900 7760 (1993) 123 (1996) 1200 173 262 329 408 699 1170 1220 3130 5760
2021-03-03 10:30 5.85 1920 7760 (1993) 123 (1996) 1200 173 262 329 408 699 1170 1220 3130 5760
2021-03-03 10:00 5.87 1930 7760 (1993) 123 (1996) 1200 173 262 329 408 699 1170 1220 3130 5760
2021-03-03 09:30 5.88 1940 7760 (1993) 123 (1996) 1200 173 262 329 408 699 1170 1220 3130 5760
2021-03-03 09:00 5.91 1960 7760 (1993) 123 (1996) 1200 173 262 329 408 699 1170 1220 3130 5760
2021-03-03 08:30 5.92 1970 7760 (1993) 123 (1996) 1200 173 262 329 408 699 1170 1220 3130 5760
2021-03-03 08:00 5.95 1990 7760 (1993) 123 (1996) 1200 173 262 329 408 699 1170 1220 3130 5760
2021-03-03 07:30 5.97 2010 7760 (1993) 123 (1996) 1200 173 262 329 408 699 1170 1220 3130 5760
2021-03-03 07:00 5.99 2020 7760 (1993) 123 (1996) 1200 173 262 329 408 699 1170 1220 3130 5760
2021-03-03 06:30 6.01 2040 7760 (1993) 123 (1996) 1200 173 262 329 408 699 1170 1220 3130 5760
2021-03-03 06:00 6.03 2060 7760 (1993) 123 (1996) 1200 173 262 329 408 699 1170 1220 3130 5760
2021-03-03 05:30 6.05 2070 7760 (1993) 123 (1996) 1200 173 262 329 408 699 1170 1220 3130 5760
2021-03-03 05:00 6.07 2090 7760 (1993) 123 (1996) 1200 173 262 329 408 699 1170 1220 3130 5760
2021-03-03 04:30 6.10 2110 7760 (1993) 123 (1996) 1200 173 262 329 408 699 1170 1220 3130 5760
2021-03-03 04:00 6.12 2130 7760 (1993) 123 (1996) 1200 173 262 329 408 699 1170 1220 3130 5760
2021-03-03 03:30 6.14 2140 7760 (1993) 123 (1996) 1200 173 262 329 408 699 1170 1220 3130 5760
2021-03-03 03:00 6.17 2170 7760 (1993) 123 (1996) 1200 173 262 329 408 699 1170 1220 3130 5760
2021-03-03 02:30 6.20 2190 7760 (1993) 123 (1996) 1200 173 262 329 408 699 1170 1220 3130 5760
2021-03-03 02:00 6.21 2200 7760 (1993) 123 (1996) 1200 173 262 329 408 699 1170 1220 3130 5760
2021-03-03 01:30 6.23 2210 7760 (1993) 123 (1996) 1200 173 262 329 408 699 1170 1220 3130 5760
2021-03-03 01:00 6.25 2230 7760 (1993) 123 (1996) 1200 173 262 329 408 699 1170 1220 3130 5760
2021-03-03 00:30 6.29 2260 7760 (1993) 123 (1996) 1200 173 262 329 408 699 1170 1220 3130 5760
2021-03-03 00:00 6.32 2290 7760 (1993) 123 (1996) 1200 173 262 329 408 699 1170 1220 3130 5760
2021-03-02 23:30 6.34 2300 7510 (1997) 129 (1996) 1170 184 262 348 378 679 1210 1340 2990 6110
2021-03-02 23:00 6.36 2320 7510 (1997) 129 (1996) 1170 184 262 348 378 679 1210 1340 2990 6110
2021-03-02 22:30 6.40 2350 7510 (1997) 129 (1996) 1170 184 262 348 378 679 1210 1340 2990 6110
2021-03-02 22:00 6.42 2370 7510 (1997) 129 (1996) 1170 184 262 348 378 679 1210 1340 2990 6110
2021-03-02 21:30 6.45 2390 7510 (1997) 129 (1996) 1170 184 262 348 378 679 1210 1340 2990 6110
2021-03-02 21:00 6.48 2420 7510 (1997) 129 (1996) 1170 184 262 348 378 679 1210 1340 2990 6110
2021-03-02 20:30 6.51 2440 7510 (1997) 129 (1996) 1170 184 262 348 378 679 1210 1340 2990 6110
2021-03-02 20:00 6.54 2470 7510 (1997) 129 (1996) 1170 184 262 348 378 679 1210 1340 2990 6110
2021-03-02 19:30 6.57 2500 7510 (1997) 129 (1996) 1170 184 262 348 378 679 1210 1340 2990 6110
2021-03-02 19:00 6.60 2520 7510 (1997) 129 (1996) 1170 184 262 348 378 679 1210 1340 2990 6110
2021-03-02 18:30 6.63 2550 7510 (1997) 129 (1996) 1170 184 262 348 378 679 1210 1340 2990 6110
2021-03-02 18:00 6.66 2570 7510 (1997) 129 (1996) 1170 184 262 348 378 679 1210 1340 2990 6110
2021-03-02 17:30 6.70 2610 7510 (1997) 129 (1996) 1170 184 262 348 378 679 1210 1340 2990 6110
2021-03-02 17:00 6.73 2640 7510 (1997) 129 (1996) 1170 184 262 348 378 679 1210 1340 2990 6110
2021-03-02 16:30 6.76 2660 7510 (1997) 129 (1996) 1170 184 262 348 378 679 1210 1340 2990 6110
2021-03-02 16:00 6.79 2690 7510 (1997) 129 (1996) 1170 184 262 348 378 679 1210 1340 2990 6110
2021-03-02 15:30 6.83 2720 7510 (1997) 129 (1996) 1170 184 262 348 378 679 1210 1340 2990 6110
2021-03-02 15:00 6.88 2770 7510 (1997) 129 (1996) 1170 184 262 348 378 679 1210 1340 2990 6110
2021-03-02 14:30 6.90 2790 7510 (1997) 129 (1996) 1170 184 262 348 378 679 1210 1340 2990 6110
2021-03-02 14:00 6.93 2820 7510 (1997) 129 (1996) 1170 184 262 348 378 679 1210 1340 2990 6110
2021-03-02 13:30 6.97 2850 7510 (1997) 129 (1996) 1170 184 262 348 378 679 1210 1340 2990 6110
2021-03-02 13:00 7.01 2890 7510 (1997) 129 (1996) 1170 184 262 348 378 679 1210 1340 2990 6110
2021-03-02 12:30 7.05 2930 7510 (1997) 129 (1996) 1170 184 262 348 378 679 1210 1340 2990 6110
2021-03-02 12:00 7.08 2960 7510 (1997) 129 (1996) 1170 184 262 348 378 679 1210 1340 2990 6110
2021-03-02 11:00 7.17 3060 7510 (1997) 129 (1996) 1170 184 262 348 378 679 1210 1340 2990 6110
2021-03-02 10:30 7.22 3110 7510 (1997) 129 (1996) 1170 184 262 348 378 679 1210 1340 2990 6110
2021-03-02 10:00 7.26 3150 7510 (1997) 129 (1996) 1170 184 262 348 378 679 1210 1340 2990 6110
2021-03-02 09:30 7.31 3210 7510 (1997) 129 (1996) 1170 184 262 348 378 679 1210 1340 2990 6110
2021-03-02 09:00 7.34 3240 7510 (1997) 129 (1996) 1170 184 262 348 378 679 1210 1340 2990 6110
2021-03-02 08:30 7.40 3300 7510 (1997) 129 (1996) 1170 184 262 348 378 679 1210 1340 2990 6110
2021-03-02 08:00 7.43 3340 7510 (1997) 129 (1996) 1170 184 262 348 378 679 1210 1340 2990 6110
2021-03-02 07:30 7.49 3400 7510 (1997) 129 (1996) 1170 184 262 348 378 679 1210 1340 2990 6110
2021-03-02 07:00 7.53 3450 7510 (1997) 129 (1996) 1170 184 262 348 378 679 1210 1340 2990 6110
2021-03-02 06:30 7.58 3500 7510 (1997) 129 (1996) 1170 184 262 348 378 679 1210 1340 2990 6110
2021-03-02 06:00 7.65 3580 7510 (1997) 129 (1996) 1170 184 262 348 378 679 1210 1340 2990 6110
2021-03-02 05:30 7.69 3630 7510 (1997) 129 (1996) 1170 184 262 348 378 679 1210 1340 2990 6110
2021-03-02 05:00 7.74 3690 7510 (1997) 129 (1996) 1170 184 262 348 378 679 1210 1340 2990 6110
2021-03-02 04:30 7.80 3760 7510 (1997) 129 (1996) 1170 184 262 348 378 679 1210 1340 2990 6110
2021-03-02 04:00 7.83 3790 7510 (1997) 129 (1996) 1170 184 262 348 378 679 1210 1340 2990 6110
2021-03-02 03:30 7.91 3890 7510 (1997) 129 (1996) 1170 184 262 348 378 679 1210 1340 2990 6110
2021-03-02 03:00 7.97 3960 7510 (1997) 129 (1996) 1170 184 262 348 378 679 1210 1340 2990 6110
2021-03-02 02:30 8.02 4020 7510 (1997) 129 (1996) 1170 184 262 348 378 679 1210 1340 2990 6110
2021-03-02 02:00 8.08 4100 7510 (1997) 129 (1996) 1170 184 262 348 378 679 1210 1340 2990 6110
2021-03-02 01:30 8.14 4170 7510 (1997) 129 (1996) 1170 184 262 348 378 679 1210 1340 2990 6110
2021-03-02 01:00 8.19 4230 7510 (1997) 129 (1996) 1170 184 262 348 378 679 1210 1340 2990 6110
2021-03-02 00:30 8.25 4310 7510 (1997) 129 (1996) 1170 184 262 348 378 679 1210 1340 2990 6110
2021-03-02 00:00 8.31 4380 7510 (1997) 129 (1996) 1170 184 262 348 378 679 1210 1340 2990 6110
2021-03-01 23:30 8.38 4470 7000 (1987) 131 (1996) 1160 191 255 329 379 656 1320 1560 3560 5500
2021-03-01 23:00 8.45 4570 7000 (1987) 131 (1996) 1160 191 255 329 379 656 1320 1560 3560 5500
2021-03-01 22:30 8.50 4630 7000 (1987) 131 (1996) 1160 191 255 329 379 656 1320 1560 3560 5500
2021-03-01 22:00 8.59 4750 7000 (1987) 131 (1996) 1160 191 255 329 379 656 1320 1560 3560 5500
2021-03-01 21:30 8.65 4830 7000 (1987) 131 (1996) 1160 191 255 329 379 656 1320 1560 3560 5500
2021-03-01 21:00 8.70 4900 7000 (1987) 131 (1996) 1160 191 255 329 379 656 1320 1560 3560 5500
2021-03-01 20:30 8.76 4980 7000 (1987) 131 (1996) 1160 191 255 329 379 656 1320 1560 3560 5500
2021-03-01 20:00 8.85 5110 7000 (1987) 131 (1996) 1160 191 255 329 379 656 1320 1560 3560 5500
2021-03-01 19:30 8.94 5230 7000 (1987) 131 (1996) 1160 191 255 329 379 656 1320 1560 3560 5500
2021-03-01 19:00 9.01 5330 7000 (1987) 131 (1996) 1160 191 255 329 379 656 1320 1560 3560 5500
2021-03-01 18:30 9.08 5430 7000 (1987) 131 (1996) 1160 191 255 329 379 656 1320 1560 3560 5500
2021-03-01 18:00 9.16 5550 7000 (1987) 131 (1996) 1160 191 255 329 379 656 1320 1560 3560 5500
2021-03-01 17:30 9.25 5680 7000 (1987) 131 (1996) 1160 191 255 329 379 656 1320 1560 3560 5500
2021-03-01 17:00 9.35 5820 7000 (1987) 131 (1996) 1160 191 255 329 379 656 1320 1560 3560 5500
2021-03-01 16:30 9.45 5970 7000 (1987) 131 (1996) 1160 191 255 329 379 656 1320 1560 3560 5500
2021-03-01 16:00 9.54 6110 7000 (1987) 131 (1996) 1160 191 255 329 379 656 1320 1560 3560 5500
2021-03-01 15:30 9.62 6230 7000 (1987) 131 (1996) 1160 191 255 329 379 656 1320 1560 3560 5500
2021-03-01 15:00 9.74 6420 7000 (1987) 131 (1996) 1160 191 255 329 379 656 1320 1560 3560 5500
2021-03-01 14:30 9.84 6580 7000 (1987) 131 (1996) 1160 191 255 329 379 656 1320 1560 3560 5500
2021-03-01 14:00 9.96 6770 7000 (1987) 131 (1996) 1160 191 255 329 379 656 1320 1560 3560 5500
2021-03-01 13:30 10.09 6980 7000 (1987) 131 (1996) 1160 191 255 329 379 656 1320 1560 3560 5500
2021-03-01 13:00 10.19 7150 7000 (1987) 131 (1996) 1160 191 255 329 379 656 1320 1560 3560 5500
2021-03-01 12:30 10.30 7330 7000 (1987) 131 (1996) 1160 191 255 329 379 656 1320 1560 3560 5500
2021-03-01 12:00 10.40 7500 7000 (1987) 131 (1996) 1160 191 255 329 379 656 1320 1560 3560 5500
2021-03-01 11:30 10.62 7880 7000 (1987) 131 (1996) 1160 191 255 329 379 656 1320 1560 3560 5500
2021-03-01 11:00 10.71 8040 7000 (1987) 131 (1996) 1160 191 255 329 379 656 1320 1560 3560 5500
2021-03-01 10:30 10.87 8330 7000 (1987) 131 (1996) 1160 191 255 329 379 656 1320 1560 3560 5500
2021-03-01 10:00 10.99 8550 7000 (1987) 131 (1996) 1160 191 255 329 379 656 1320 1560 3560 5500
2021-03-01 09:30 11.04 8640 7000 (1987) 131 (1996) 1160 191 255 329 379 656 1320 1560 3560 5500
2021-03-01 09:00 11.26 9050 7000 (1987) 131 (1996) 1160 191 255 329 379 656 1320 1560 3560 5500
2021-03-01 08:30 11.32 9160 7000 (1987) 131 (1996) 1160 191 255 329 379 656 1320 1560 3560 5500
2021-03-01 08:00 11.46 9430 7000 (1987) 131 (1996) 1160 191 255 329 379 656 1320 1560 3560 5500
2021-03-01 07:30 11.55 9600 7000 (1987) 131 (1996) 1160 191 255 329 379 656 1320 1560 3560 5500
2021-03-01 07:00 11.68 9860 7000 (1987) 131 (1996) 1160 191 255 329 379 656 1320 1560 3560 5500
2021-03-01 06:30 11.83 10200 7000 (1987) 131 (1996) 1160 191 255 329 379 656 1320 1560 3560 5500
2021-03-01 06:00 11.96 10400 7000 (1987) 131 (1996) 1160 191 255 329 379 656 1320 1560 3560 5500
2021-03-01 05:30 12.07 10600 7000 (1987) 131 (1996) 1160 191 255 329 379 656 1320 1560 3560 5500
2021-03-01 05:00 12.22 10900 7000 (1987) 131 (1996) 1160 191 255 329 379 656 1320 1560 3560 5500
2021-03-01 04:30 12.33 11100 7000 (1987) 131 (1996) 1160 191 255 329 379 656 1320 1560 3560 5500
2021-03-01 04:00 12.49 11400 7000 (1987) 131 (1996) 1160 191 255 329 379 656 1320 1560 3560 5500
2021-03-01 03:30 12.61 11700 7000 (1987) 131 (1996) 1160 191 255 329 379 656 1320 1560 3560 5500
2021-03-01 03:00 12.71 11900 7000 (1987) 131 (1996) 1160 191 255 329 379 656 1320 1560 3560 5500
2021-03-01 02:30 12.76 12000 7000 (1987) 131 (1996) 1160 191 255 329 379 656 1320 1560 3560 5500
2021-03-01 02:00 12.94 12400 7000 (1987) 131 (1996) 1160 191 255 329 379 656 1320 1560 3560 5500
2021-03-01 01:30 12.98 12400 7000 (1987) 131 (1996) 1160 191 255 329 379 656 1320 1560 3560 5500
2021-03-01 01:00 13.12 12700 7000 (1987) 131 (1996) 1160 191 255 329 379 656 1320 1560 3560 5500
2021-03-01 00:30 13.19 12900 7000 (1987) 131 (1996) 1160 191 255 329 379 656 1320 1560 3560 5500
2021-03-01 00:00 13.24 13000 7000 (1987) 131 (1996) 1160 191 255 329 379 656 1320 1560 3560 5500
2021-02-28 23:30 13.19 12900 5170 (1997) 132 (1996) 1270 162 260 311 350 720 1570 1730 3790 4780
2021-02-28 23:00 13.34 13200 5170 (1997) 132 (1996) 1270 162 260 311 350 720 1570 1730 3790 4780
2021-02-28 22:30 13.28 13100 5170 (1997) 132 (1996) 1270 162 260 311 350 720 1570 1730 3790 4780
2021-02-28 22:00 13.26 13000 5170 (1997) 132 (1996) 1270 162 260 311 350 720 1570 1730 3790 4780
2021-02-28 21:30 13.13 12800 5170 (1997) 132 (1996) 1270 162 260 311 350 720 1570 1730 3790 4780
2021-02-28 21:00 13.06 12600 5170 (1997) 132 (1996) 1270 162 260 311 350 720 1570 1730 3790 4780
2021-02-28 20:30 12.78 12000 5170 (1997) 132 (1996) 1270 162 260 311 350 720 1570 1730 3790 4780
2021-02-28 20:00 12.65 11800 5170 (1997) 132 (1996) 1270 162 260 311 350 720 1570 1730 3790 4780
2021-02-28 19:30 12.40 11300 5170 (1997) 132 (1996) 1270 162 260 311 350 720 1570 1730 3790 4780
2021-02-28 19:00 12.20 10900 5170 (1997) 132 (1996) 1270 162 260 311 350 720 1570 1730 3790 4780
2021-02-28 18:30 11.99 10500 5170 (1997) 132 (1996) 1270 162 260 311 350 720 1570 1730 3790 4780
2021-02-28 18:00 11.83 10200 5170 (1997) 132 (1996) 1270 162 260 311 350 720 1570 1730 3790 4780
2021-02-28 17:30 11.66 9820 5170 (1997) 132 (1996) 1270 162 260 311 350 720 1570 1730 3790 4780
2021-02-28 17:00 11.48 9470 5170 (1997) 132 (1996) 1270 162 260 311 350 720 1570 1730 3790 4780
2021-02-28 16:30 11.55 9600 5170 (1997) 132 (1996) 1270 162 260 311 350 720 1570 1730 3790 4780
2021-02-28 16:00 11.52 9550 5170 (1997) 132 (1996) 1270 162 260 311 350 720 1570 1730 3790 4780
2021-02-28 15:30 11.57 9640 5170 (1997) 132 (1996) 1270 162 260 311 350 720 1570 1730 3790 4780
2021-02-28 15:00 11.57 9640 5170 (1997) 132 (1996) 1270 162 260 311 350 720 1570 1730 3790 4780
2021-02-28 14:30 11.59 9680 5170 (1997) 132 (1996) 1270 162 260 311 350 720 1570 1730 3790 4780
2021-02-28 14:00 11.59 9680 5170 (1997) 132 (1996) 1270 162 260 311 350 720 1570 1730 3790 4780
2021-02-28 13:30 11.65 9800 5170 (1997) 132 (1996) 1270 162 260 311 350 720 1570 1730 3790 4780
2021-02-28 13:00 11.65 9800 5170 (1997) 132 (1996) 1270 162 260 311 350 720 1570 1730 3790 4780
2021-02-28 12:30 11.62 9740 5170 (1997) 132 (1996) 1270 162 260 311 350 720 1570 1730 3790 4780
2021-02-28 12:00 11.68 9860 5170 (1997) 132 (1996) 1270 162 260 311 350 720 1570 1730 3790 4780
2021-02-28 11:30 11.65 9800 5170 (1997) 132 (1996) 1270 162 260 311 350 720 1570 1730 3790 4780
2021-02-28 11:00 11.49 9490 5170 (1997) 132 (1996) 1270 162 260 311 350 720 1570 1730 3790 4780
2021-02-28 10:30 11.39 9300 5170 (1997) 132 (1996) 1270 162 260 311 350 720 1570 1730 3790 4780
2021-02-28 10:00 11.18 8900 5170 (1997) 132 (1996) 1270 162 260 311 350 720 1570 1730 3790 4780
2021-02-28 09:30 10.89 8360 5170 (1997) 132 (1996) 1270 162 260 311 350 720 1570 1730 3790 4780
2021-02-28 09:00 10.56 7780 5170 (1997) 132 (1996) 1270 162 260 311 350 720 1570 1730 3790 4780
2021-02-28 08:30 10.24 7230 5170 (1997) 132 (1996) 1270 162 260 311 350 720 1570 1730 3790 4780
2021-02-28 08:00 9.99 6820 5170 (1997) 132 (1996) 1270 162 260 311 350 720 1570 1730 3790 4780
2021-02-28 07:30 9.77 6470 5170 (1997) 132 (1996) 1270 162 260 311 350 720 1570 1730 3790 4780
2021-02-28 07:00 9.50 6050 5170 (1997) 132 (1996) 1270 162 260 311 350 720 1570 1730 3790 4780
2021-02-28 06:30 9.27 5710 5170 (1997) 132 (1996) 1270 162 260 311 350 720 1570 1730 3790 4780
2021-02-28 06:00 9.00 5320 5170 (1997) 132 (1996) 1270 162 260 311 350 720 1570 1730 3790 4780
2021-02-28 05:30 8.69 4890 5170 (1997) 132 (1996) 1270 162 260 311 350 720 1570 1730 3790 4780
2021-02-28 05:00 8.41 4510 5170 (1997) 132 (1996) 1270 162 260 311 350 720 1570 1730 3790 4780
2021-02-28 04:30 8.12 4150 5170 (1997) 132 (1996) 1270 162 260 311 350 720 1570 1730 3790 4780
2021-02-28 04:00 7.75 3700 5170 (1997) 132 (1996) 1270 162 260 311 350 720 1570 1730 3790 4780
2021-02-28 03:30 7.26 3150 5170 (1997) 132 (1996) 1270 162 260 311 350 720 1570 1730 3790 4780
2021-02-28 03:00 6.74 2640 5170 (1997) 132 (1996) 1270 162 260 311 350 720 1570 1730 3790 4780
2021-02-28 02:30 6.23 2210 5170 (1997) 132 (1996) 1270 162 260 311 350 720 1570 1730 3790 4780
2021-02-28 02:00 5.76 1850 5170 (1997) 132 (1996) 1270 162 260 311 350 720 1570 1730 3790 4780
2021-02-28 01:30 5.44 1630 5170 (1997) 132 (1996) 1270 162 260 311 350 720 1570 1730 3790 4780
2021-02-28 01:00 5.23 1490 5170 (1997) 132 (1996) 1270 162 260 311 350 720 1570 1730 3790 4780
2021-02-28 00:30 5.06 1380 5170 (1997) 132 (1996) 1270 162 260 311 350 720 1570 1730 3790 4780
2021-02-28 00:00 4.91 1290 5170 (1997) 132 (1996) 1270 162 260 311 350 720 1570 1730 3790 4780

A total of 172 rows are displayed for years 1984 through 2020.